Norbank — PGIS — position and weather

sailwx.info

Track history (hours):
 
Tides and Currents Weather Stations Pressure Air Temp Water Temp Dewpoint Dewpoint Depression Visibility Wind Speed Wind Dir Waves Ship Positions

Norbank

Operator: P & O Ferries

Last reported at 2015-Jul-04 18:31 UTC. Time now 2015-Jul-04 18:59 UTC.
Position N 53°27' W 003°01'.

Length 167 m; draft 5.4 m.

Type: Ship (hazmat cat A). MMSI: 246213000.

Date/timePositionNaut miles runAvg speedWind from/ knotsBaromVisibWave heightAir tempDewpointWater temp
2015-Jul-04 18:31N 53°27' W 003°01'0 0.0
2015-Jul-04 17:33N 53°27' W 003°01'0 0.0
2015-Jul-04 16:33N 53°27' W 003°01'0 0.4
2015-Jul-04 15:33N 53°27' W 003°01'9 9.1
2015-Jul-04 14:33N 53°31' W 003°15'1515.4
2015-Jul-04 13:33N 53°31' W 003°41'1514.7
2015-Jul-04 12:33N 53°33' W 004°05'11 0.8
2015-Jul-03 23:03N 53°33' W 003°46'918.0
2015-Jul-03 22:33N 53°33' W 003°31'1616.1
2015-Jul-03 21:33N 53°29' W 003°05'3 3.1
2015-Jul-03 20:34N 53°27' W 003°01'0 0.4
2015-Jul-03 19:32N 53°27' W 003°01'0 0.0
2015-Jul-03 18:26N 53°27' W 003°01'0 0.0
2015-Jul-03 17:32N 53°27' W 003°01'0 0.0
2015-Jul-03 16:28N 53°27' W 003°01'0 0.5
2015-Jul-03 15:33N 53°27' W 003°01'9 8.9
2015-Jul-03 14:33N 53°31' W 003°14'1818.2
2015-Jul-03 13:33N 53°31' W 003°45'1717.3
2015-Jul-03 12:33N 53°33' W 004°14'9 0.7
2015-Jul-02 23:17N 53°34' W 003°59'1216.4
2015-Jul-02 22:33N 53°34' W 003°38'1615.8
2015-Jul-02 21:33N 53°31' W 003°12'8 7.8
2015-Jul-02 20:33N 53°27' W 003°01'0 0.4
2015-Jul-02 19:32N 53°27' W 003°01'0 0.0
2015-Jul-02 18:32N 53°27' W 003°01'0 0.0
2015-Jul-02 17:31N 53°27' W 003°01'0 0.0
2015-Jul-02 16:31N 53°27' W 003°01'0 0.5
2015-Jul-02 15:33N 53°27' W 003°01'7 7.5
2015-Jul-02 14:33N 53°31' W 003°11'1817.7
2015-Jul-02 13:33N 53°32' W 003°41'1818.1
2015-Jul-02 12:33N 53°35' W 004°11'10 0.8
2015-Jul-02 00:19N 53°34' W 004°28'1918.1
2015-Jul-01 23:17N 53°34' W 003°57'1216.7
2015-Jul-01 22:33N 53°33' W 003°36'1616.5
2015-Jul-01 21:33N 53°32' W 003°09'7 6.7
2015-Jul-01 20:33N 53°27' W 003°01'0 0.5
2015-Jul-01 19:32N 53°27' W 003°01'0 0.0
2015-Jul-01 18:25N 53°27' W 003°01'0 0.0
2015-Jul-01 17:31N 53°27' W 003°01'0 0.0
2015-Jul-01 16:34N 53°27' W 003°01'0 0.4
2015-Jul-01 15:32N 53°27' W 003°01'9 9.3
2015-Jul-01 14:33N 53°31' W 003°15'1818.0
2015-Jul-01 13:33N 53°32' W 003°45'1615.7
2015-Jul-01 12:33N 53°34' W 004°11'5 0.4
2015-Jun-30 23:31N 53°33' W 004°02'1718.0
2015-Jun-30 22:33N 53°33' W 003°33'1716.9
2015-Jun-30 21:34N 53°30' W 003°05'3 3.4
2015-Jun-30 20:33N 53°27' W 003°01'0 0.3
2015-Jun-30 19:32N 53°27' W 003°01'0 0.0
2015-Jun-30 18:32N 53°27' W 003°01'0 0.0
2015-Jun-30 17:32N 53°27' W 003°01'0 0.0
2015-Jun-30 16:28N 53°27' W 003°01'0 0.5
2015-Jun-30 15:33N 53°27' W 003°01'10 9.6
2015-Jun-30 14:33N 53°31' W 003°16'1818.0
2015-Jun-30 13:33N 53°32' W 003°46'3516.7
2015-Jun-30 11:27N 53°35' W 004°45'33 2.6
2015-Jun-29 22:33N 53°34' W 003°48'1717.2
2015-Jun-29 21:33N 53°32' W 003°20'1212.0
2015-Jun-29 20:33N 53°27' W 003°01'0 0.5
2015-Jun-29 19:32N 53°27' W 003°01'0 0.0
2015-Jun-29 18:32N 53°27' W 003°01'0 0.0
2015-Jun-29 17:32N 53°27' W 003°01'0 0.0
2015-Jun-29 16:31N 53°27' W 003°01'0 0.0
2015-Jun-29 15:31N 53°27' W 003°01'0 0.0
2015-Jun-29 14:30N 53°27' W 003°01'0 0.0
2015-Jun-29 13:30N 53°27' W 003°01'0 0.0
2015-Jun-29 12:29N 53°27' W 003°01'0 0.0
2015-Jun-29 11:32N 53°27' W 003°01'0 0.0
2015-Jun-29 10:29N 53°27' W 003°01'0 0.0
2015-Jun-29 09:31N 53°27' W 003°01'0 0.0
2015-Jun-29 08:31N 53°27' W 003°01'0 0.0
2015-Jun-29 07:30N 53°27' W 003°01'0 0.0
2015-Jun-29 06:30N 53°27' W 003°01'0 0.0
2015-Jun-29 05:32N 53°27' W 003°01'0 0.5
2015-Jun-29 04:33N 53°27' W 003°01'6 5.7
2015-Jun-29 03:33N 53°31' W 003°07'1515.0
2015-Jun-29 02:33N 53°31' W 003°33'1414.3
2015-Jun-29 01:33N 53°33' W 003°56'1514.4
2015-Jun-29 00:30N 53°36' W 004°22'19 0.7
2015-Jun-27 23:07N 53°34' W 003°50'916.3
2015-Jun-27 22:34N 53°33' W 003°35'1616.2
2015-Jun-27 21:33N 53°32' W 003°08'6 6.0
2015-Jun-27 20:33N 53°27' W 003°01'0 0.0
2015-Jun-27 19:33N 53°27' W 003°01'0 0.0
2015-Jun-27 18:33N 53°27' W 003°01'0 0.0
2015-Jun-27 17:32N 53°27' W 003°01'0 0.0
2015-Jun-27 16:29N 53°27' W 003°01'0 0.4
2015-Jun-27 15:33N 53°27' W 003°01'9 8.8
2015-Jun-27 14:33N 53°31' W 003°14'1817.9
2015-Jun-27 13:33N 53°32' W 003°44'1818.0
2015-Jun-27 12:33N 53°35' W 004°14'16 1.1
2015-Jun-26 22:17N 53°34' W 003°48'1317.5
2015-Jun-26 21:33N 53°33' W 003°27'1615.8
2015-Jun-26 20:33N 53°27' W 003°02'1 0.6
2015-Jun-26 19:33N 53°27' W 003°01'0 0.0
2015-Jun-26 18:33N 53°27' W 003°01'0 0.0
2015-Jun-26 17:33N 53°27' W 003°01'0 0.0
2015-Jun-26 16:33N 53°27' W 003°01'0 0.4
2015-Jun-26 15:31N 53°27' W 003°01'7 7.4
2015-Jun-26 14:33N 53°32' W 003°10'1717.1
2015-Jun-26 13:33N 53°31' W 003°39'1818.4
2015-Jun-26 12:33N 53°34' W 004°10'17 1.4
2015-Jun-26 00:31N 53°34' W 004°38'2019.5
2015-Jun-25 23:29N 53°33' W 004°04'1920.2
2015-Jun-25 22:33N 53°33' W 003°32'1818.2
2015-Jun-25 21:33N 53°28' W 003°03'1 1.3
2015-Jun-25 20:33N 53°27' W 003°01'0 0.0
2015-Jun-25 19:33N 53°27' W 003°01'0 0.0
2015-Jun-25 18:32N 53°27' W 003°01'0 0.0
2015-Jun-25 17:32N 53°27' W 003°01'0 0.0
2015-Jun-25 16:28N 53°27' W 003°01'0 0.1
2015-Jun-25 15:28N 53°27' W 003°01'2 2.3
2015-Jun-25 14:33N 53°28' W 003°04'1716.7
2015-Jun-25 13:33N 53°31' W 003°32'2019.8
2015-Jun-25 12:33N 53°34' W 004°05'12 0.9
2015-Jun-24 22:33N 53°33' W 003°45'1817.6
2015-Jun-24 21:33N 53°31' W 003°15'9 9.5
2015-Jun-24 20:33N 53°27' W 003°01'0 0.4
2015-Jun-24 19:33N 53°27' W 003°01'  
Track history (hours):
 
Tides and Currents Weather Stations Pressure Air Temp Water Temp Dewpoint Dewpoint Depression Visibility Wind Speed Wind Dir Waves Ship Positions

Norbank

Operator: P & O Ferries

Last reported at 2015-Jul-04 18:31 UTC. Time now 2015-Jul-04 18:59 UTC.
Position N 53°27' W 003°01'.

Length 167 m; draft 5.4 m.

Type: Ship (hazmat cat A). MMSI: 246213000.

Date/timePositionNaut miles runAvg speedWind from/ knotsBaromVisibWave heightAir tempDewpointWater temp
2015-Jul-04 18:31N 53°27' W 003°01'0 0.0
2015-Jul-04 17:33N 53°27' W 003°01'0 0.0
2015-Jul-04 16:33N 53°27' W 003°01'0 0.4
2015-Jul-04 15:33N 53°27' W 003°01'9 9.1
2015-Jul-04 14:33N 53°31' W 003°15'1515.4
2015-Jul-04 13:33N 53°31' W 003°41'1514.7
2015-Jul-04 12:33N 53°33' W 004°05'11 0.8
2015-Jul-03 23:03N 53°33' W 003°46'918.0
2015-Jul-03 22:33N 53°33' W 003°31'1616.1
2015-Jul-03 21:33N 53°29' W 003°05'3 3.1
2015-Jul-03 20:34N 53°27' W 003°01'0 0.4
2015-Jul-03 19:32N 53°27' W 003°01'0 0.0
2015-Jul-03 18:26N 53°27' W 003°01'0 0.0
2015-Jul-03 17:32N 53°27' W 003°01'0 0.0
2015-Jul-03 16:28N 53°27' W 003°01'0 0.5
2015-Jul-03 15:33N 53°27' W 003°01'9 8.9
2015-Jul-03 14:33N 53°31' W 003°14'1818.2
2015-Jul-03 13:33N 53°31' W 003°45'1717.3
2015-Jul-03 12:33N 53°33' W 004°14'9 0.7
2015-Jul-02 23:17N 53°34' W 003°59'1216.4
2015-Jul-02 22:33N 53°34' W 003°38'1615.8
2015-Jul-02 21:33N 53°31' W 003°12'8 7.8
2015-Jul-02 20:33N 53°27' W 003°01'0 0.4
2015-Jul-02 19:32N 53°27' W 003°01'0 0.0
2015-Jul-02 18:32N 53°27' W 003°01'0 0.0
2015-Jul-02 17:31N 53°27' W 003°01'0 0.0
2015-Jul-02 16:31N 53°27' W 003°01'0 0.5
2015-Jul-02 15:33N 53°27' W 003°01'7 7.5
2015-Jul-02 14:33N 53°31' W 003°11'1817.7
2015-Jul-02 13:33N 53°32' W 003°41'1818.1
2015-Jul-02 12:33N 53°35' W 004°11'10 0.8
2015-Jul-02 00:19N 53°34' W 004°28'1918.1
2015-Jul-01 23:17N 53°34' W 003°57'1216.7
2015-Jul-01 22:33N 53°33' W 003°36'1616.5
2015-Jul-01 21:33N 53°32' W 003°09'7 6.7
2015-Jul-01 20:33N 53°27' W 003°01'0 0.5
2015-Jul-01 19:32N 53°27' W 003°01'0 0.0
2015-Jul-01 18:25N 53°27' W 003°01'0 0.0
2015-Jul-01 17:31N 53°27' W 003°01'0 0.0
2015-Jul-01 16:34N 53°27' W 003°01'0 0.4
2015-Jul-01 15:32N 53°27' W 003°01'9 9.3
2015-Jul-01 14:33N 53°31' W 003°15'1818.0
2015-Jul-01 13:33N 53°32' W 003°45'1615.7
2015-Jul-01 12:33N 53°34' W 004°11'5 0.4
2015-Jun-30 23:31N 53°33' W 004°02'1718.0
2015-Jun-30 22:33N 53°33' W 003°33'1716.9
2015-Jun-30 21:34N 53°30' W 003°05'3 3.4
2015-Jun-30 20:33N 53°27' W 003°01'0 0.3
2015-Jun-30 19:32N 53°27' W 003°01'0 0.0
2015-Jun-30 18:32N 53°27' W 003°01'0 0.0
2015-Jun-30 17:32N 53°27' W 003°01'0 0.0
2015-Jun-30 16:28N 53°27' W 003°01'0 0.5
2015-Jun-30 15:33N 53°27' W 003°01'10 9.6
2015-Jun-30 14:33N 53°31' W 003°16'1818.0
2015-Jun-30 13:33N 53°32' W 003°46'3516.7
2015-Jun-30 11:27N 53°35' W 004°45'33 2.6
2015-Jun-29 22:33N 53°34' W 003°48'1717.2
2015-Jun-29 21:33N 53°32' W 003°20'1212.0
2015-Jun-29 20:33N 53°27' W 003°01'0 0.5
2015-Jun-29 19:32N 53°27' W 003°01'0 0.0
2015-Jun-29 18:32N 53°27' W 003°01'0 0.0
2015-Jun-29 17:32N 53°27' W 003°01'0 0.0
2015-Jun-29 16:31N 53°27' W 003°01'0 0.0
2015-Jun-29 15:31N 53°27' W 003°01'0 0.0
2015-Jun-29 14:30N 53°27' W 003°01'0 0.0
2015-Jun-29 13:30N 53°27' W 003°01'0 0.0
2015-Jun-29 12:29N 53°27' W 003°01'0 0.0
2015-Jun-29 11:32N 53°27' W 003°01'0 0.0
2015-Jun-29 10:29N 53°27' W 003°01'0 0.0
2015-Jun-29 09:31N 53°27' W 003°01'0 0.0
2015-Jun-29 08:31N 53°27' W 003°01'0 0.0
2015-Jun-29 07:30N 53°27' W 003°01'0 0.0
2015-Jun-29 06:30N 53°27' W 003°01'0 0.0
2015-Jun-29 05:32N 53°27' W 003°01'0 0.5
2015-Jun-29 04:33N 53°27' W 003°01'6 5.7
2015-Jun-29 03:33N 53°31' W 003°07'1515.0
2015-Jun-29 02:33N 53°31' W 003°33'1414.3
2015-Jun-29 01:33N 53°33' W 003°56'1514.4
2015-Jun-29 00:30N 53°36' W 004°22'19 0.7
2015-Jun-27 23:07N 53°34' W 003°50'916.3
2015-Jun-27 22:34N 53°33' W 003°35'1616.2
2015-Jun-27 21:33N 53°32' W 003°08'6 6.0
2015-Jun-27 20:33N 53°27' W 003°01'0 0.0
2015-Jun-27 19:33N 53°27' W 003°01'0 0.0
2015-Jun-27 18:33N 53°27' W 003°01'0 0.0
2015-Jun-27 17:32N 53°27' W 003°01'0 0.0
2015-Jun-27 16:29N 53°27' W 003°01'0 0.4
2015-Jun-27 15:33N 53°27' W 003°01'9 8.8
2015-Jun-27 14:33N 53°31' W 003°14'1817.9
2015-Jun-27 13:33N 53°32' W 003°44'1818.0
2015-Jun-27 12:33N 53°35' W 004°14'16 1.1
2015-Jun-26 22:17N 53°34' W 003°48'1317.5
2015-Jun-26 21:33N 53°33' W 003°27'1615.8
2015-Jun-26 20:33N 53°27' W 003°02'1 0.6
2015-Jun-26 19:33N 53°27' W 003°01'0 0.0
2015-Jun-26 18:33N 53°27' W 003°01'0 0.0
2015-Jun-26 17:33N 53°27' W 003°01'0 0.0
2015-Jun-26 16:33N 53°27' W 003°01'0 0.4
2015-Jun-26 15:31N 53°27' W 003°01'7 7.4
2015-Jun-26 14:33N 53°32' W 003°10'1717.1
2015-Jun-26 13:33N 53°31' W 003°39'1818.4
2015-Jun-26 12:33N 53°34' W 004°10'17 1.4
2015-Jun-26 00:31N 53°34' W 004°38'2019.5
2015-Jun-25 23:29N 53°33' W 004°04'1920.2
2015-Jun-25 22:33N 53°33' W 003°32'1818.2
2015-Jun-25 21:33N 53°28' W 003°03'1 1.3
2015-Jun-25 20:33N 53°27' W 003°01'0 0.0
2015-Jun-25 19:33N 53°27' W 003°01'0 0.0
2015-Jun-25 18:32N 53°27' W 003°01'0 0.0
2015-Jun-25 17:32N 53°27' W 003°01'0 0.0
2015-Jun-25 16:28N 53°27' W 003°01'0 0.1
2015-Jun-25 15:28N 53°27' W 003°01'2 2.3
2015-Jun-25 14:33N 53°28' W 003°04'1716.7
2015-Jun-25 13:33N 53°31' W 003°32'2019.8
2015-Jun-25 12:33N 53°34' W 004°05'12 0.9
2015-Jun-24 22:33N 53°33' W 003°45'1817.6
2015-Jun-24 21:33N 53°31' W 003°15'9 9.5
2015-Jun-24 20:33N 53°27' W 003°01'0 0.4
2015-Jun-24 19:33N 53°27' W 003°01'  

Dump ship's entire track history